Terminal Aerodrome Forecast
Issued by NWS

Home | Current Version | Previous Version | Text Only | Print | Product List | Glossary On
Versions: 1 2 3 4 5 6 7 8 9 10 11 12 13 14 15 16 17 18
397
FTUS46 KPDT 191633 AAB
TAFDLS
TAF AMD
KDLS 191633Z 1917/2012 VRB04KT P6SM BKN004 BKN250
      TEMPO 1917/1919 SCT005
     FM191900 VRB04KT P6SM BKN250
     FM200300 VRB04KT P6SM OVC100
     FM200600 VRB04KT P6SM -RA OVC050=

USA.gov is the U.S. government's official web portal to all federal, state and local government web resources and services.